createdAt,value
2018-10-07T00:02:08.791Z,2.93
2018-10-07T00:04:38.218Z,0.90
2018-10-07T00:07:07.570Z,1.07
2018-10-07T00:09:37.948Z,1.07
2018-10-07T00:12:07.560Z,1.00
2018-10-07T00:14:37.538Z,1.77
2018-10-07T00:17:07.837Z,1.33
2018-10-07T00:19:37.261Z,1.37
2018-10-07T00:22:06.678Z,1.70
2018-10-07T00:24:36.919Z,0.97
2018-10-07T00:27:08.129Z,0.60
2018-10-07T00:29:38.121Z,0.83
2018-10-07T00:32:14.790Z,0.80
2018-10-07T00:34:45.996Z,1.07
2018-10-07T00:37:17.334Z,0.90
2018-10-07T00:39:46.753Z,0.63
2018-10-07T00:42:16.222Z,1.13
2018-10-07T00:44:46.066Z,1.50
2018-10-07T00:47:16.273Z,1.03
2018-10-07T00:49:45.849Z,2.60
2018-10-07T00:52:15.810Z,3.03
2018-10-07T00:54:45.261Z,3.87
2018-10-07T00:57:14.651Z,3.57
2018-10-07T00:59:45.255Z,5.23
2018-10-07T01:02:14.695Z,3.57
2018-10-07T01:04:44.078Z,8.07
2018-10-07T01:07:13.849Z,3.90
2018-10-07T01:09:42.745Z,3.50
2018-10-07T01:12:12.169Z,6.03
2018-10-07T01:14:41.920Z,6.63
2018-10-07T01:17:11.262Z,7.03
2018-10-07T01:19:40.739Z,11.30
2018-10-07T01:22:10.554Z,9.07
2018-10-07T01:24:39.963Z,4.77
2018-10-07T01:27:08.740Z,5.13
2018-10-07T01:29:38.086Z,5.60
2018-10-07T01:32:07.845Z,26.87
2018-10-07T01:34:37.271Z,6.20
2018-10-07T01:37:06.630Z,6.13
2018-10-07T01:39:36.713Z,5.00
2018-10-07T01:42:06.591Z,9.70
2018-10-07T01:44:35.954Z,15.33
2018-10-07T01:47:06.361Z,5.57
2018-10-07T01:49:35.850Z,6.37
2018-10-07T01:52:05.490Z,4.73
2018-10-07T01:54:34.870Z,4.33
2018-10-07T01:57:09.969Z,4.43
2018-10-07T01:59:40.043Z,5.20
2018-10-07T02:02:09.562Z,7.13
2018-10-07T02:04:40.223Z,7.70
2018-10-07T02:07:11.132Z,5.80
2018-10-07T02:09:40.686Z,16.70
2018-10-07T02:12:10.173Z,15.20
2018-10-07T02:14:39.606Z,3.80
2018-10-07T02:17:11.616Z,6.00
2018-10-07T02:19:46.884Z,4.63
2018-10-07T02:22:17.162Z,4.40
2018-10-07T02:24:46.756Z,4.03
2018-10-07T02:27:16.750Z,3.20
2018-10-07T02:29:46.078Z,7.00
2018-10-07T02:32:15.440Z,4.90
2018-10-07T02:34:45.745Z,9.43
2018-10-07T02:37:16.124Z,11.47
2018-10-07T02:39:45.557Z,5.67
2018-10-07T02:42:15.431Z,7.10
2018-10-07T02:44:44.934Z,7.00
2018-10-07T02:47:14.475Z,5.63
2018-10-07T02:49:45.385Z,5.07
2018-10-07T02:52:20.032Z,5.17
2018-10-07T02:54:51.046Z,3.33
2018-10-07T02:57:22.184Z,4.90
2018-10-07T02:59:52.397Z,6.20
2018-10-07T03:02:23.334Z,5.27
2018-10-07T03:04:55.624Z,3.97
2018-10-07T03:07:24.650Z,5.80
2018-10-07T03:09:54.013Z,2.70
2018-10-07T03:12:24.059Z,10.00
2018-10-07T03:14:53.711Z,4.87
2018-10-07T03:17:23.074Z,15.17
2018-10-07T03:19:52.228Z,4.93
2018-10-07T03:22:21.623Z,4.70
2018-10-07T03:24:50.627Z,6.70
2018-10-07T03:27:19.906Z,6.67
2018-10-07T03:29:49.758Z,4.63
2018-10-07T03:32:19.477Z,4.80
2018-10-07T03:34:50.461Z,13.07
2018-10-07T03:37:19.813Z,11.13
2018-10-07T03:39:48.625Z,13.53
2018-10-07T03:42:17.470Z,5.63
2018-10-07T03:44:47.011Z,7.00
2018-10-07T03:47:17.930Z,5.20
2018-10-07T03:49:47.434Z,7.67
2018-10-07T03:52:16.785Z,5.33
2018-10-07T03:54:46.315Z,4.33
2018-10-07T03:57:16.344Z,12.90
2018-10-07T03:59:46.381Z,3.53
2018-10-07T04:02:15.893Z,7.70
2018-10-07T04:04:44.864Z,7.93
2018-10-07T04:07:14.646Z,8.83
2018-10-07T04:09:47.715Z,9.43
2018-10-07T04:12:16.637Z,5.77
2018-10-07T04:14:46.049Z,7.60
2018-10-07T04:17:15.480Z,4.77
2018-10-07T04:19:45.026Z,22.20
2018-10-07T04:22:14.797Z,10.10
2018-10-07T04:24:44.423Z,3.50
2018-10-07T04:27:13.857Z,11.90
2018-10-07T04:29:43.286Z,4.43
2018-10-07T04:32:12.685Z,3.60
2018-10-07T04:34:41.671Z,7.50
2018-10-07T04:37:11.703Z,4.07
2018-10-07T04:39:41.006Z,5.47
2018-10-07T04:42:10.351Z,6.73
2018-10-07T04:44:39.703Z,7.20
2018-10-07T04:47:09.053Z,4.60
2018-10-07T04:49:38.805Z,7.87
2018-10-07T04:52:08.213Z,4.50
2018-10-07T04:54:37.678Z,7.37
2018-10-07T04:57:07.062Z,6.47
2018-10-07T04:59:36.824Z,6.50
2018-10-07T05:02:06.130Z,15.20
2018-10-07T05:04:35.533Z,6.07
2018-10-07T05:07:05.003Z,6.10
2018-10-07T05:09:35.243Z,7.03
2018-10-07T05:12:08.174Z,4.70
2018-10-07T05:14:37.848Z,4.70
2018-10-07T05:17:06.846Z,14.90
2018-10-07T05:19:36.142Z,6.27
2018-10-07T05:22:05.591Z,3.43
2018-10-07T05:24:35.031Z,10.37
2018-10-07T05:27:04.435Z,9.20
2018-10-07T05:29:33.347Z,4.70
2018-10-07T05:32:02.717Z,4.70
2018-10-07T05:34:32.477Z,8.77
2018-10-07T05:37:01.910Z,5.07
2018-10-07T05:39:31.198Z,8.93
2018-10-07T05:42:01.099Z,10.17
2018-10-07T05:44:30.643Z,9.37
2018-10-07T05:46:59.894Z,3.60
2018-10-07T05:49:29.295Z,4.57
2018-10-07T05:51:59.007Z,4.13
2018-10-07T05:54:28.397Z,6.37
2018-10-07T05:56:57.719Z,4.70
2018-10-07T05:59:27.506Z,5.80
2018-10-07T06:01:57.313Z,7.70
2018-10-07T06:04:35.149Z,10.03
2018-10-07T06:07:05.133Z,5.70
2018-10-07T06:09:36.726Z,9.33
2018-10-07T06:12:06.830Z,7.73
2018-10-07T06:14:41.129Z,16.43
2018-10-07T06:17:10.639Z,8.77
2018-10-07T06:19:40.532Z,5.07
2018-10-07T06:22:09.927Z,14.90
2018-10-07T06:24:39.305Z,20.77
2018-10-07T06:27:09.108Z,21.63
2018-10-07T06:29:38.542Z,18.17
2018-10-07T06:32:08.381Z,17.10
2018-10-07T06:34:37.721Z,4.60
2018-10-07T06:37:07.212Z,5.00
2018-10-07T06:39:36.561Z,4.73
2018-10-07T06:42:05.954Z,5.97
2018-10-07T06:44:35.330Z,5.90
2018-10-07T06:47:06.096Z,15.70
2018-10-07T06:49:35.478Z,4.87
2018-10-07T06:52:05.949Z,3.90
2018-10-07T06:54:35.402Z,2.00
2018-10-07T06:57:05.969Z,4.20
2018-10-07T06:59:39.545Z,4.93
2018-10-07T07:02:10.394Z,4.50
2018-10-07T07:04:40.005Z,2.47
2018-10-07T07:07:10.969Z,2.00
2018-10-07T07:09:40.377Z,1.30
2018-10-07T07:12:13.501Z,1.77
2018-10-07T07:14:44.631Z,1.23
2018-10-07T07:17:13.664Z,1.80
2018-10-07T07:19:56.640Z,5.17
2018-10-07T07:22:26.760Z,2.20
2018-10-07T07:24:57.371Z,14.07
2018-10-07T07:27:28.864Z,1.00
2018-10-07T07:29:59.952Z,1.20
2018-10-07T07:32:30.219Z,2.87
2018-10-07T07:34:59.629Z,0.60
2018-10-07T07:37:29.842Z,2.30
2018-10-07T07:40:00.319Z,1.80
2018-10-07T07:42:30.655Z,0.50
2018-10-07T07:44:59.458Z,1.03
2018-10-07T07:47:33.339Z,1.33
2018-10-07T07:50:04.322Z,1.00
2018-10-07T07:55:20.283Z,1.00
2018-10-07T07:57:53.568Z,1.23
2018-10-07T08:00:25.599Z,4.73
2018-10-07T08:02:55.086Z,1.23
2018-10-07T08:05:24.156Z,1.47
2018-10-07T08:07:57.977Z,0.70
2018-10-07T08:10:27.861Z,1.33
2018-10-07T08:12:57.563Z,0.50
2018-10-07T08:15:26.963Z,0.50
2018-10-07T08:17:58.369Z,1.23
2018-10-07T08:20:28.506Z,1.27
2018-10-07T08:22:58.127Z,0.80
2018-10-07T08:25:29.885Z,1.43
2018-10-07T08:28:14.365Z,1.87
2018-10-07T08:30:44.584Z,0.60
2018-10-07T08:33:14.279Z,0.57
2018-10-07T08:35:43.745Z,1.07
2018-10-07T08:38:15.499Z,0.50
2018-10-07T08:40:45.513Z,0.50
2018-10-07T08:43:16.321Z,1.43
2018-10-07T08:45:53.130Z,0.60
2018-10-07T08:48:24.093Z,1.50
2018-10-07T08:50:56.765Z,0.60
2018-10-07T08:53:27.966Z,0.50
2018-10-07T08:55:59.201Z,0.53
2018-10-07T08:58:28.823Z,0.77
2018-10-07T09:01:00.080Z,0.50
2018-10-07T09:03:37.420Z,0.50
2018-10-07T09:06:07.198Z,0.60
2018-10-07T09:08:38.217Z,0.77
2018-10-07T09:11:10.307Z,0.70
2018-10-07T09:13:50.322Z,0.50
2018-10-07T09:16:20.093Z,0.53
2018-10-07T09:18:49.690Z,0.50
2018-10-07T09:21:19.738Z,0.50
2018-10-07T09:23:51.426Z,3.63
2018-10-07T09:26:22.532Z,1.07
2018-10-07T09:28:55.172Z,1.00
2018-10-07T09:31:28.116Z,0.50
2018-10-07T09:33:57.749Z,1.57
2018-10-07T09:36:37.325Z,0.60
2018-10-07T09:39:10.080Z,0.50
2018-10-07T09:41:41.010Z,1.57
2018-10-07T09:44:11.365Z,0.50
2018-10-07T09:46:41.627Z,1.47
2018-10-07T09:49:12.890Z,1.20
2018-10-07T09:51:42.276Z,0.60
2018-10-07T09:54:11.954Z,0.80
2018-10-07T09:56:41.796Z,0.60
2018-10-07T09:59:11.412Z,1.70
2018-10-07T10:01:42.387Z,0.50
2018-10-07T10:04:11.772Z,0.80
2018-10-07T10:06:41.189Z,0.57
2018-10-07T10:09:12.614Z,0.50
2018-10-07T10:11:42.571Z,0.80
2018-10-07T10:14:16.126Z,0.50
2018-10-07T10:17:25.080Z,2.30
2018-10-07T10:19:57.335Z,1.60
2018-10-07T10:23:31.033Z,1.57
2018-10-07T10:26:15.335Z,3.03
2018-10-07T10:29:06.074Z,1.00
2018-10-07T10:31:50.570Z,0.50
2018-10-07T10:36:48.024Z,1.10
2018-10-07T10:39:20.163Z,0.67
2018-10-07T10:42:11.586Z,0.60
2018-10-07T10:44:49.570Z,0.50
2018-10-07T10:47:29.968Z,1.03
2018-10-07T10:50:06.905Z,0.87
2018-10-07T10:53:24.236Z,0.60
2018-10-07T10:56:16.973Z,0.50
2018-10-07T10:59:53.962Z,0.60
2018-10-07T11:02:31.725Z,0.90
2018-10-07T11:05:11.513Z,0.60
2018-10-07T11:07:59.090Z,1.00
2018-10-07T11:10:32.191Z,3.40
2018-10-07T11:13:08.646Z,0.70
2018-10-07T11:17:49.975Z,0.63
2018-10-07T11:20:26.150Z,1.13
2018-10-07T11:23:10.399Z,0.67
2018-10-07T11:27:56.905Z,0.77
2018-10-07T11:31:41.589Z,0.50
2018-10-07T11:34:15.737Z,0.60
2018-10-07T11:36:52.491Z,0.70
2018-10-07T11:39:26.594Z,3.80
2018-10-07T11:42:05.615Z,0.50
2018-10-07T11:45:09.243Z,3.90
2018-10-07T11:50:13.381Z,0.50
2018-10-07T11:52:54.012Z,2.10
2018-10-07T11:55:23.745Z,0.60
2018-10-07T11:57:54.295Z,3.17
2018-10-07T12:00:24.406Z,0.70
2018-10-07T12:02:54.084Z,0.50
2018-10-07T12:05:24.163Z,0.50
2018-10-07T12:07:54.061Z,0.50
2018-10-07T12:10:23.049Z,0.73
2018-10-07T12:12:52.937Z,0.50
2018-10-07T12:15:22.712Z,1.13
2018-10-07T12:17:52.079Z,1.57
2018-10-07T12:20:25.243Z,0.60
2018-10-07T12:22:54.629Z,0.60
2018-10-07T12:25:24.552Z,1.10
2018-10-07T12:27:55.135Z,0.60
2018-10-07T12:30:24.976Z,2.30
2018-10-07T12:32:54.675Z,0.50
2018-10-07T12:35:24.649Z,0.77
2018-10-07T12:37:54.363Z,1.60
2018-10-07T12:40:25.242Z,0.50
2018-10-07T12:42:55.898Z,0.70
2018-10-07T12:45:27.122Z,0.60
2018-10-07T12:47:56.988Z,0.57
2018-10-07T12:50:27.901Z,0.63
2018-10-07T12:52:59.141Z,0.60
2018-10-07T12:55:28.772Z,0.50
2018-10-07T12:58:04.644Z,0.50
2018-10-07T13:03:28.730Z,0.70
2018-10-07T13:05:58.225Z,0.60
2018-10-07T13:08:28.075Z,0.80
2018-10-07T13:10:58.459Z,0.50
2018-10-07T13:13:27.957Z,0.90
2018-10-07T13:16:03.502Z,0.70
2018-10-07T13:18:33.361Z,0.70
2018-10-07T13:21:02.786Z,0.80
2018-10-07T13:23:32.790Z,0.50
2018-10-07T13:26:04.486Z,0.67
2018-10-07T13:28:34.168Z,0.50
2018-10-07T13:31:04.350Z,0.67
2018-10-07T13:33:34.488Z,1.33
2018-10-07T13:36:03.950Z,0.50
2018-10-07T13:38:34.905Z,0.50
2018-10-07T13:41:04.323Z,0.50
2018-10-07T13:43:33.834Z,0.90
2018-10-07T13:46:03.688Z,0.70
2018-10-07T13:48:33.197Z,0.60
2018-10-07T13:51:03.292Z,0.50
2018-10-07T13:53:33.294Z,0.60
2018-10-07T13:56:02.973Z,0.50
2018-10-07T13:58:32.601Z,0.60
2018-10-07T14:01:03.376Z,0.93
2018-10-07T14:03:32.918Z,0.67
2018-10-07T14:06:02.426Z,0.50
2018-10-07T14:08:32.377Z,3.37
2018-10-07T14:11:02.917Z,0.57
2018-10-07T14:13:32.799Z,0.73
2018-10-07T14:16:03.482Z,0.50
2018-10-07T14:18:36.445Z,0.70
2018-10-07T14:21:06.043Z,0.80
2018-10-07T14:23:35.542Z,0.50
2018-10-07T14:26:14.608Z,0.50
2018-10-07T14:28:49.846Z,0.60
2018-10-07T14:31:19.536Z,0.60
2018-10-07T14:33:50.291Z,0.50
2018-10-07T14:36:20.371Z,0.60
2018-10-07T14:38:50.199Z,0.50
2018-10-07T14:41:20.642Z,0.50
2018-10-07T14:43:51.263Z,0.70
2018-10-07T14:46:21.090Z,0.50
2018-10-07T14:48:51.355Z,0.60
2018-10-07T14:51:22.119Z,2.10
2018-10-07T14:53:52.914Z,0.50
2018-10-07T14:56:22.892Z,0.60
2018-10-07T14:58:52.559Z,0.50
2018-10-07T15:01:22.636Z,0.50
2018-10-07T15:03:52.808Z,0.60
2018-10-07T15:06:22.394Z,3.10
2018-10-07T15:08:54.978Z,0.50
2018-10-07T15:11:25.912Z,1.00
2018-10-07T15:13:56.513Z,0.57
2018-10-07T15:16:26.606Z,0.67
2018-10-07T15:18:56.014Z,0.50
2018-10-07T15:21:27.085Z,0.50
2018-10-07T15:24:00.161Z,0.50
2018-10-07T15:26:31.447Z,5.03
2018-10-07T15:29:03.861Z,0.50
2018-10-07T15:31:42.604Z,0.50
2018-10-07T15:34:13.651Z,0.80
2018-10-07T15:36:45.446Z,0.50
2018-10-07T15:39:17.598Z,0.60
2018-10-07T15:41:47.541Z,0.60
2018-10-07T15:44:18.305Z,0.50
2018-10-07T15:46:47.773Z,0.50
2018-10-07T15:49:17.227Z,0.73
2018-10-07T15:51:46.650Z,0.50
2018-10-07T15:54:16.706Z,0.50
2018-10-07T15:56:46.493Z,0.50
2018-10-07T15:59:15.986Z,0.50
2018-10-07T16:01:45.877Z,1.00
2018-10-07T16:04:15.433Z,0.60
2018-10-07T16:06:44.835Z,0.60
2018-10-07T16:09:14.800Z,0.50
2018-10-07T16:11:44.410Z,0.50
2018-10-07T16:14:14.100Z,0.60
2018-10-07T16:16:43.972Z,0.50
2018-10-07T16:19:18.000Z,0.50
2018-10-07T16:21:47.333Z,0.60
2018-10-07T16:24:17.096Z,0.50
2018-10-07T16:26:46.635Z,0.50
2018-10-07T16:29:16.156Z,0.50
2018-10-07T16:31:45.878Z,0.60
2018-10-07T16:34:15.205Z,0.50
2018-10-07T16:36:44.788Z,0.50
2018-10-07T16:39:14.590Z,1.67
2018-10-07T16:41:43.926Z,0.90
2018-10-07T16:44:13.373Z,0.50
2018-10-07T16:46:43.216Z,0.50
2018-10-07T16:49:12.631Z,0.50
2018-10-07T16:51:42.028Z,0.50
2018-10-07T16:54:11.697Z,0.60
2018-10-07T16:56:41.018Z,0.50
2018-10-07T16:59:10.375Z,0.83
2018-10-07T17:01:40.082Z,0.53
2018-10-07T17:04:09.591Z,0.70
2018-10-07T17:06:39.490Z,0.60
2018-10-07T17:09:10.344Z,0.50
2018-10-07T17:11:40.166Z,0.50
2018-10-07T17:14:09.853Z,0.50
2018-10-07T17:16:40.055Z,0.50
2018-10-07T17:19:09.526Z,0.97
2018-10-07T17:21:39.387Z,0.50
2018-10-07T17:24:09.396Z,0.73
2018-10-07T17:26:38.919Z,0.53
2018-10-07T17:29:08.462Z,0.50
2018-10-07T17:31:38.758Z,0.80
2018-10-07T17:34:08.525Z,0.53
2018-10-07T17:36:38.176Z,0.60
2018-10-07T17:39:10.944Z,0.63
2018-10-07T17:41:44.254Z,0.50
2018-10-07T17:44:13.868Z,0.57
2018-10-07T17:46:43.797Z,0.50
2018-10-07T17:49:13.691Z,0.53
2018-10-07T17:51:43.818Z,0.50
2018-10-07T17:54:13.998Z,0.60
2018-10-07T17:56:44.710Z,0.77
2018-10-07T17:59:15.276Z,0.90
2018-10-07T18:01:45.425Z,0.50
2018-10-07T18:04:17.016Z,0.60
2018-10-07T18:06:48.684Z,0.50
2018-10-07T18:09:18.967Z,0.63
2018-10-07T18:11:51.219Z,1.30
2018-10-07T18:14:21.998Z,1.40
2018-10-07T18:16:53.121Z,1.80
2018-10-07T18:19:47.355Z,0.50
2018-10-07T18:22:18.186Z,1.00
2018-10-07T18:24:49.250Z,0.50
2018-10-07T18:27:18.994Z,0.60
2018-10-07T18:29:54.564Z,0.50
2018-10-07T18:32:24.478Z,1.13
2018-10-07T18:34:54.123Z,1.40
2018-10-07T18:37:34.094Z,0.80
2018-10-07T18:40:10.954Z,1.03
2018-10-07T18:42:41.593Z,2.00
2018-10-07T18:45:11.689Z,1.50
2018-10-07T18:47:44.963Z,0.50
2018-10-07T18:50:15.097Z,0.70
2018-10-07T18:52:44.905Z,1.90
2018-10-07T18:55:16.507Z,1.30
2018-10-07T18:57:49.533Z,0.50
2018-10-07T19:00:20.124Z,0.60
2018-10-07T19:02:50.284Z,1.13
2018-10-07T19:05:20.804Z,1.20
2018-10-07T19:07:50.604Z,2.83
2018-10-07T19:10:20.578Z,0.50
2018-10-07T19:12:51.322Z,0.80
2018-10-07T19:15:49.166Z,0.50
2018-10-07T19:18:42.757Z,0.50
2018-10-07T19:21:15.755Z,0.50
2018-10-07T19:24:00.795Z,0.50
2018-10-07T19:26:34.848Z,0.60
2018-10-07T19:29:13.043Z,1.20
2018-10-07T19:31:48.101Z,0.63
2018-10-07T19:34:24.703Z,0.50
2018-10-07T19:36:58.493Z,0.77
2018-10-07T19:39:32.711Z,0.80
2018-10-07T19:42:05.747Z,0.50
2018-10-07T19:44:36.644Z,0.80
2018-10-07T19:47:24.879Z,3.70
2018-10-07T19:50:00.165Z,0.60
2018-10-07T19:52:34.630Z,0.53
2018-10-07T19:55:08.644Z,0.60
2018-10-07T19:57:49.583Z,2.50
2018-10-07T20:00:23.340Z,1.43
2018-10-07T20:02:53.758Z,0.50
2018-10-07T20:05:31.536Z,1.20
2018-10-07T20:08:02.253Z,0.80
2018-10-07T20:10:37.419Z,0.50
2018-10-07T20:13:10.091Z,0.80
2018-10-07T20:15:45.943Z,2.03
2018-10-07T20:18:23.929Z,0.60
2018-10-07T20:20:56.105Z,0.50
2018-10-07T20:23:29.419Z,0.50
2018-10-07T20:26:02.261Z,0.60
2018-10-07T20:28:39.088Z,0.60
2018-10-07T20:34:15.858Z,0.70
2018-10-07T20:36:52.925Z,0.50
2018-10-07T20:39:26.744Z,0.50
2018-10-07T20:42:02.927Z,0.70
2018-10-07T20:44:35.138Z,0.90
2018-10-07T20:47:09.158Z,1.90
2018-10-07T20:49:57.512Z,0.60
2018-10-07T20:52:37.539Z,0.50
2018-10-07T20:55:09.339Z,0.60
2018-10-07T20:57:45.486Z,0.60
2018-10-07T21:00:22.496Z,0.60
2018-10-07T21:02:59.312Z,0.50
2018-10-07T21:05:30.722Z,4.20
2018-10-07T21:08:08.782Z,0.50
2018-10-07T21:10:39.681Z,0.57
2018-10-07T21:13:15.314Z,0.50
2018-10-07T21:15:45.932Z,0.83
2018-10-07T21:18:23.623Z,0.50
2018-10-07T21:20:57.659Z,0.90
2018-10-07T21:23:30.815Z,1.10
2018-10-07T21:26:02.168Z,0.50
2018-10-07T21:28:33.166Z,0.50
2018-10-07T21:31:04.073Z,1.00
2018-10-07T21:33:34.794Z,0.50
2018-10-07T21:36:18.573Z,0.50
2018-10-07T21:41:47.027Z,0.93
2018-10-07T21:44:17.702Z,0.50
2018-10-07T21:46:48.950Z,0.50
2018-10-07T21:49:21.433Z,0.97
2018-10-07T21:51:53.046Z,0.50
2018-10-07T21:54:29.663Z,0.50
2018-10-07T21:57:01.063Z,0.50
2018-10-07T21:59:31.716Z,0.50
2018-10-07T22:02:06.011Z,0.50
2018-10-07T22:04:35.680Z,0.50
2018-10-07T22:07:05.627Z,0.50
2018-10-07T22:09:44.082Z,0.70
2018-10-07T22:12:17.387Z,0.60
2018-10-07T22:14:48.958Z,0.50
2018-10-07T22:17:27.158Z,0.50
2018-10-07T22:19:57.120Z,0.50
2018-10-07T22:22:28.006Z,0.50
2018-10-07T22:24:59.038Z,0.60
2018-10-07T22:27:31.523Z,0.50
2018-10-07T22:30:00.796Z,0.87
2018-10-07T22:32:31.265Z,0.67
2018-10-07T22:35:11.543Z,0.63
2018-10-07T22:37:43.356Z,0.50
2018-10-07T22:40:14.475Z,0.50
2018-10-07T22:42:44.847Z,0.50
2018-10-07T22:45:14.019Z,0.50
2018-10-07T22:47:46.383Z,0.50
2018-10-07T22:50:16.777Z,0.50
2018-10-07T22:52:49.876Z,0.47
2018-10-07T22:55:20.204Z,0.50
2018-10-07T22:57:49.652Z,0.40
2018-10-07T23:00:27.841Z,0.50
2018-10-07T23:03:00.134Z,0.50
2018-10-07T23:05:31.248Z,0.77
2018-10-07T23:08:03.967Z,0.50
2018-10-07T23:10:33.586Z,1.33
2018-10-07T23:13:03.246Z,0.40
2018-10-07T23:15:33.781Z,0.70
2018-10-07T23:18:03.168Z,0.50
2018-10-07T23:20:32.593Z,0.50
2018-10-07T23:23:02.528Z,0.47
2018-10-07T23:25:31.977Z,0.50
2018-10-07T23:28:01.465Z,0.50
2018-10-07T23:30:30.889Z,0.50
2018-10-07T23:33:00.408Z,0.50
2018-10-07T23:35:30.156Z,0.50
2018-10-07T23:38:08.861Z,0.40
2018-10-07T23:40:39.671Z,0.50
2018-10-07T23:43:12.414Z,0.40
2018-10-07T23:45:41.916Z,0.40
2018-10-07T23:48:12.159Z,4.00
2018-10-07T23:50:44.870Z,0.67
2018-10-07T23:53:15.600Z,4.57
2018-10-07T23:55:45.036Z,0.50
2018-10-07T23:58:17.190Z,0.50
